createdAt,value
2017-09-25T00:02:23.257Z,23.10
2017-09-25T00:04:53.636Z,15.80
2017-09-25T00:07:25.680Z,14.80
2017-09-25T00:09:56.931Z,13.80
2017-09-25T00:12:27.514Z,21.23
2017-09-25T00:14:58.200Z,17.13
2017-09-25T00:17:28.551Z,21.73
2017-09-25T00:19:58.870Z,16.57
2017-09-25T00:22:29.194Z,19.90
2017-09-25T00:25:01.082Z,16.00
2017-09-25T00:27:32.311Z,19.60
2017-09-25T00:30:02.624Z,15.03
2017-09-25T00:32:33.402Z,13.60
2017-09-25T00:35:03.788Z,13.70
2017-09-25T00:37:34.825Z,15.03
2017-09-25T00:40:07.218Z,21.10
2017-09-25T00:42:37.536Z,15.13
2017-09-25T00:45:07.814Z,20.87
2017-09-25T00:47:38.528Z,17.67
2017-09-25T00:50:08.934Z,19.10
2017-09-25T00:52:49.249Z,20.80
2017-09-25T00:55:28.013Z,13.97
2017-09-25T00:57:59.295Z,17.40
2017-09-25T01:00:39.935Z,15.40
2017-09-25T01:03:19.620Z,14.77
2017-09-25T01:05:58.954Z,12.73
2017-09-25T01:08:29.416Z,14.33
2017-09-25T01:11:00.498Z,18.83
2017-09-25T01:13:31.323Z,12.53
2017-09-25T01:16:01.516Z,13.10
2017-09-25T01:18:32.194Z,10.60
2017-09-25T01:21:02.601Z,10.00
2017-09-25T01:23:32.987Z,9.93
2017-09-25T01:26:03.461Z,15.60
2017-09-25T01:28:33.795Z,17.40
2017-09-25T01:31:04.123Z,15.33
2017-09-25T01:33:34.963Z,15.73
2017-09-25T01:36:05.163Z,13.87
2017-09-25T01:38:35.430Z,11.97
2017-09-25T01:41:06.435Z,17.20
2017-09-25T01:43:37.158Z,15.27
2017-09-25T01:46:07.437Z,14.10
2017-09-25T01:48:37.714Z,15.70
2017-09-25T01:51:07.985Z,23.87
2017-09-25T01:53:39.004Z,15.23
2017-09-25T01:56:09.332Z,16.90
2017-09-25T01:58:41.082Z,19.40
2017-09-25T02:01:11.710Z,24.43
2017-09-25T02:03:42.371Z,20.20
2017-09-25T02:06:12.749Z,23.57
2017-09-25T02:08:43.871Z,22.87
2017-09-25T02:11:14.426Z,18.40
2017-09-25T02:13:44.872Z,20.60
2017-09-25T02:16:15.867Z,26.67
2017-09-25T02:18:46.113Z,24.27
2017-09-25T02:21:16.235Z,21.20
2017-09-25T02:23:46.627Z,15.40
2017-09-25T02:26:17.389Z,13.90
2017-09-25T02:28:47.642Z,16.07
2017-09-25T02:31:17.954Z,21.07
2017-09-25T02:33:48.934Z,18.03
2017-09-25T02:36:19.198Z,14.80
2017-09-25T02:38:49.642Z,19.13
2017-09-25T02:41:19.897Z,18.97
2017-09-25T02:43:52.626Z,19.40
2017-09-25T02:46:22.891Z,24.70
2017-09-25T02:48:54.237Z,21.17
2017-09-25T02:51:24.516Z,21.70
2017-09-25T02:53:54.989Z,16.37
2017-09-25T02:56:25.718Z,14.70
2017-09-25T02:58:55.879Z,14.07
2017-09-25T03:01:26.067Z,16.33
2017-09-25T03:03:57.397Z,18.50
2017-09-25T03:06:27.818Z,14.53
2017-09-25T03:08:58.062Z,16.30
2017-09-25T03:11:28.625Z,26.70
2017-09-25T03:13:59.280Z,19.63
2017-09-25T03:16:29.597Z,18.47
2017-09-25T03:18:59.695Z,16.93
2017-09-25T03:21:30.457Z,16.90
2017-09-25T03:24:00.754Z,18.60
2017-09-25T03:26:30.876Z,20.37
2017-09-25T03:29:01.073Z,20.70
2017-09-25T03:31:32.342Z,16.40
2017-09-25T03:34:03.209Z,16.70
2017-09-25T03:36:33.823Z,17.97
2017-09-25T03:39:04.483Z,17.90
2017-09-25T03:41:35.201Z,28.27
2017-09-25T03:44:05.587Z,21.50
2017-09-25T03:46:35.929Z,17.90
2017-09-25T03:49:06.190Z,19.47
2017-09-25T03:51:36.375Z,20.07
2017-09-25T03:54:06.511Z,21.80
2017-09-25T03:56:37.221Z,18.20
2017-09-25T03:59:07.558Z,16.63
2017-09-25T04:01:37.793Z,21.20
2017-09-25T04:04:08.165Z,23.90
2017-09-25T04:06:38.320Z,29.40
2017-09-25T04:09:08.578Z,30.57
2017-09-25T04:11:38.960Z,25.30
2017-09-25T04:14:09.350Z,28.37
2017-09-25T04:16:39.715Z,30.80
2017-09-25T04:19:09.736Z,24.13
2017-09-25T04:21:39.996Z,23.87
2017-09-25T04:24:10.182Z,25.90
2017-09-25T04:26:40.865Z,26.80
2017-09-25T04:29:10.927Z,20.00
2017-09-25T04:31:41.089Z,23.97
2017-09-25T04:34:11.654Z,26.10
2017-09-25T04:39:28.638Z,27.63
2017-09-25T04:42:01.882Z,24.33
2017-09-25T04:44:36.216Z,24.03
2017-09-25T04:47:06.324Z,32.33
2017-09-25T04:49:37.185Z,30.00
2017-09-25T04:52:07.546Z,29.03
2017-09-25T04:54:38.024Z,30.63
2017-09-25T04:57:08.029Z,33.23
2017-09-25T04:59:38.170Z,30.17
2017-09-25T05:02:08.180Z,30.60
2017-09-25T05:04:38.371Z,32.83
2017-09-25T05:07:09.165Z,26.70
2017-09-25T05:09:39.803Z,31.50
2017-09-25T05:12:10.825Z,30.07
2017-09-25T05:14:40.850Z,27.80
2017-09-25T05:17:10.941Z,26.93
2017-09-25T05:19:41.017Z,31.43
2017-09-25T05:22:11.538Z,27.93
2017-09-25T05:24:41.799Z,23.67
2017-09-25T05:27:12.070Z,23.50
2017-09-25T05:29:42.148Z,32.77
2017-09-25T05:32:12.378Z,25.97
2017-09-25T05:34:42.414Z,21.00
2017-09-25T05:37:12.898Z,27.00
2017-09-25T05:39:43.021Z,30.90
2017-09-25T05:42:13.873Z,25.00
2017-09-25T05:44:44.044Z,27.10
2017-09-25T05:47:14.975Z,29.50
2017-09-25T05:49:45.098Z,25.73
2017-09-25T05:52:15.356Z,30.13
2017-09-25T05:54:45.454Z,25.87
2017-09-25T05:57:16.572Z,28.90
2017-09-25T05:59:47.324Z,25.00
2017-09-25T06:02:17.505Z,23.80
2017-09-25T06:04:47.675Z,28.17
2017-09-25T06:07:17.880Z,30.10
2017-09-25T06:09:48.056Z,27.27
2017-09-25T06:12:32.066Z,27.50
2017-09-25T06:15:10.555Z,28.40
2017-09-25T06:17:45.342Z,27.33
2017-09-25T06:20:15.760Z,27.03
2017-09-25T06:22:45.943Z,28.47
2017-09-25T06:25:15.985Z,25.67
2017-09-25T06:27:46.840Z,27.60
2017-09-25T06:30:16.914Z,30.80
2017-09-25T06:32:47.122Z,23.37
2017-09-25T06:35:18.725Z,28.13
2017-09-25T06:37:48.781Z,23.30
2017-09-25T06:40:19.748Z,28.03
2017-09-25T06:42:49.882Z,25.60
2017-09-25T06:45:20.783Z,29.87
2017-09-25T06:47:51.185Z,23.20
2017-09-25T06:50:21.558Z,24.67
2017-09-25T06:52:51.648Z,28.77
2017-09-25T06:55:21.725Z,25.80
2017-09-25T06:57:52.996Z,19.90
2017-09-25T07:00:23.313Z,25.80
2017-09-25T07:02:53.518Z,28.80
2017-09-25T07:05:23.846Z,24.43
2017-09-25T07:07:53.915Z,27.50
2017-09-25T07:10:24.038Z,20.60
2017-09-25T07:12:54.457Z,23.73
2017-09-25T07:15:25.371Z,22.30
2017-09-25T07:17:56.374Z,25.47
2017-09-25T07:20:26.797Z,30.40
2017-09-25T07:22:57.900Z,29.23
2017-09-25T07:25:27.965Z,27.77
2017-09-25T07:27:58.074Z,25.97
2017-09-25T07:30:28.885Z,21.23
2017-09-25T07:32:59.002Z,27.47
2017-09-25T07:35:29.150Z,29.97
2017-09-25T07:37:59.381Z,27.13
2017-09-25T07:40:29.634Z,31.37
2017-09-25T07:42:59.812Z,25.80
2017-09-25T07:45:30.255Z,29.50
2017-09-25T07:48:00.312Z,28.33
2017-09-25T07:50:30.733Z,28.30
2017-09-25T07:53:00.797Z,29.27
2017-09-25T07:55:31.633Z,25.00
2017-09-25T07:58:02.664Z,22.97
2017-09-25T08:00:33.865Z,24.83
2017-09-25T08:03:04.878Z,20.63
2017-09-25T08:05:35.035Z,21.17
2017-09-25T08:08:05.465Z,20.07
2017-09-25T08:10:35.639Z,27.17
2017-09-25T08:13:05.707Z,23.97
2017-09-25T08:15:35.902Z,26.20
2017-09-25T08:18:06.097Z,29.77
2017-09-25T08:20:36.349Z,24.47
2017-09-25T08:23:06.645Z,18.53
2017-09-25T08:25:36.946Z,30.03
2017-09-25T08:28:08.110Z,20.33
2017-09-25T08:30:38.585Z,25.03
2017-09-25T08:33:08.818Z,25.70
2017-09-25T08:35:38.890Z,27.73
2017-09-25T08:38:08.959Z,21.50
2017-09-25T08:40:39.041Z,25.77
2017-09-25T08:43:09.147Z,21.53
2017-09-25T08:45:39.806Z,24.90
2017-09-25T08:48:09.999Z,28.00
2017-09-25T08:50:40.071Z,26.53
2017-09-25T08:53:10.232Z,23.97
2017-09-25T08:55:40.805Z,21.97
2017-09-25T08:58:11.872Z,28.67
2017-09-25T09:00:42.391Z,26.93
2017-09-25T09:03:12.818Z,24.33
2017-09-25T09:05:43.598Z,27.57
2017-09-25T09:08:24.636Z,28.53
2017-09-25T09:10:56.478Z,28.87
2017-09-25T09:13:27.700Z,28.17
2017-09-25T09:15:58.003Z,30.30
2017-09-25T09:18:28.641Z,29.10
2017-09-25T09:20:59.117Z,25.70
2017-09-25T09:23:30.279Z,27.67
2017-09-25T09:26:00.958Z,23.03
2017-09-25T09:28:31.336Z,27.73
2017-09-25T09:31:01.737Z,27.90
2017-09-25T09:33:39.857Z,26.50
2017-09-25T09:36:10.350Z,29.00
2017-09-25T09:38:41.281Z,25.97
2017-09-25T09:41:11.482Z,24.37
2017-09-25T09:43:42.111Z,30.07
2017-09-25T09:46:12.315Z,27.40
2017-09-25T09:48:43.841Z,25.00
2017-09-25T09:51:14.739Z,25.13
2017-09-25T09:53:52.762Z,26.17
2017-09-25T09:56:24.735Z,25.60
2017-09-25T09:58:54.832Z,23.00
2017-09-25T10:01:25.036Z,24.57
2017-09-25T10:03:55.183Z,27.50
2017-09-25T10:06:26.006Z,30.67
2017-09-25T10:08:56.075Z,26.00
2017-09-25T10:11:27.244Z,26.07
2017-09-25T10:13:57.425Z,28.07
2017-09-25T10:16:28.267Z,25.77
2017-09-25T10:18:58.407Z,27.07
2017-09-25T10:21:29.879Z,26.40
2017-09-25T10:23:59.974Z,26.60
2017-09-25T10:26:30.636Z,27.53
2017-09-25T10:29:00.792Z,25.70
2017-09-25T10:31:30.874Z,25.87
2017-09-25T10:34:01.026Z,26.53
2017-09-25T10:36:31.343Z,26.03
2017-09-25T10:39:01.575Z,23.07
2017-09-25T10:41:33.031Z,24.37
2017-09-25T10:44:03.170Z,24.43
2017-09-25T10:46:34.193Z,24.57
2017-09-25T10:49:05.024Z,24.30
2017-09-25T10:51:35.236Z,22.60
2017-09-25T10:54:05.506Z,23.17
2017-09-25T10:56:36.121Z,23.03
2017-09-25T10:59:06.904Z,23.70
2017-09-25T11:01:37.266Z,21.30
2017-09-25T11:04:07.627Z,24.40
2017-09-25T11:06:37.968Z,25.73
2017-09-25T11:09:08.200Z,26.00
2017-09-25T11:11:38.928Z,23.73
2017-09-25T11:14:09.251Z,25.40
2017-09-25T11:16:40.327Z,26.47
2017-09-25T11:19:10.496Z,26.27
2017-09-25T11:21:41.019Z,23.77
2017-09-25T11:24:11.170Z,25.17
2017-09-25T11:26:41.363Z,24.00
2017-09-25T11:29:11.740Z,25.70
2017-09-25T11:31:41.960Z,24.37
2017-09-25T11:34:12.652Z,24.43
2017-09-25T11:36:43.876Z,25.30
2017-09-25T11:39:14.296Z,23.97
2017-09-25T11:41:45.399Z,21.57
2017-09-25T11:44:17.239Z,25.67
2017-09-25T11:46:51.592Z,25.60
2017-09-25T11:49:22.594Z,24.77
2017-09-25T11:51:53.142Z,27.87
2017-09-25T11:54:23.456Z,28.03
2017-09-25T11:56:53.643Z,25.10
2017-09-25T11:59:23.975Z,25.57
2017-09-25T12:01:54.969Z,27.63
2017-09-25T12:04:25.446Z,29.97
2017-09-25T12:06:56.281Z,26.57
2017-09-25T12:09:26.974Z,23.17
2017-09-25T12:11:57.469Z,26.87
2017-09-25T12:14:28.129Z,29.77
2017-09-25T12:16:58.608Z,31.03
2017-09-25T12:19:28.931Z,29.77
2017-09-25T12:21:59.131Z,30.93
2017-09-25T12:24:29.390Z,32.30
2017-09-25T12:27:00.007Z,31.63
2017-09-25T12:29:30.475Z,28.33
2017-09-25T12:32:00.565Z,27.13
2017-09-25T12:34:31.080Z,27.90
2017-09-25T12:37:01.172Z,30.07
2017-09-25T12:39:31.279Z,29.03
2017-09-25T12:42:02.587Z,26.50
2017-09-25T12:44:33.191Z,28.17
2017-09-25T12:47:03.520Z,30.20
2017-09-25T12:49:33.581Z,26.57
2017-09-25T12:52:04.305Z,28.30
2017-09-25T12:54:34.437Z,28.10
2017-09-25T12:57:04.676Z,29.60
2017-09-25T12:59:34.938Z,27.07
2017-09-25T13:02:05.134Z,30.00
2017-09-25T13:04:36.303Z,26.90
2017-09-25T13:07:06.578Z,26.73
2017-09-25T13:09:37.917Z,27.10
2017-09-25T13:12:08.796Z,23.60
2017-09-25T13:14:39.027Z,22.60
2017-09-25T13:17:09.485Z,25.90
2017-09-25T13:19:39.672Z,25.10
2017-09-25T13:22:09.758Z,28.40
2017-09-25T13:24:43.037Z,26.37
2017-09-25T13:27:13.362Z,27.57
2017-09-25T13:29:43.788Z,24.77
2017-09-25T13:32:14.742Z,26.97
2017-09-25T13:34:45.167Z,23.70
2017-09-25T13:37:16.337Z,26.10
2017-09-25T13:39:46.832Z,24.03
2017-09-25T13:42:17.178Z,28.60
2017-09-25T13:44:52.615Z,25.33
2017-09-25T13:47:24.789Z,24.50
2017-09-25T13:50:26.628Z,26.27
2017-09-25T13:53:12.951Z,24.20
2017-09-25T13:55:44.165Z,24.00
2017-09-25T14:04:26.841Z,24.00
2017-09-25T14:07:01.268Z,22.60
2017-09-25T14:09:33.060Z,26.60
2017-09-25T14:12:21.321Z,22.80
2017-09-25T14:15:57.276Z,23.37
2017-09-25T14:18:36.991Z,20.07
2017-09-25T14:21:07.209Z,23.50
2017-09-25T14:23:37.405Z,22.80
2017-09-25T14:26:09.350Z,25.57
2017-09-25T14:28:40.092Z,21.90
2017-09-25T14:31:11.297Z,26.37
2017-09-25T14:33:41.411Z,25.50
2017-09-25T14:36:12.117Z,26.60
2017-09-25T14:38:42.833Z,26.70
2017-09-25T14:41:13.817Z,24.20
2017-09-25T14:43:44.295Z,22.40
2017-09-25T14:46:14.520Z,24.40
2017-09-25T14:48:45.465Z,24.23
2017-09-25T14:51:15.924Z,24.73
2017-09-25T14:53:46.548Z,22.60
2017-09-25T14:56:17.184Z,22.90
2017-09-25T14:58:48.039Z,21.00
2017-09-25T15:01:19.809Z,22.23
2017-09-25T15:03:55.623Z,23.90
2017-09-25T15:06:29.268Z,24.17
2017-09-25T15:09:01.931Z,22.97
2017-09-25T15:11:33.774Z,24.57
2017-09-25T15:14:04.971Z,22.20
2017-09-25T15:16:36.532Z,22.13
2017-09-25T15:19:08.132Z,23.07
2017-09-25T15:21:38.551Z,21.70
2017-09-25T15:24:09.629Z,20.47
2017-09-25T15:26:39.872Z,22.00
2017-09-25T15:29:10.557Z,22.73
2017-09-25T15:31:45.921Z,23.10
2017-09-25T15:34:20.662Z,20.00
2017-09-25T15:36:53.799Z,22.30
2017-09-25T15:39:24.517Z,22.07
2017-09-25T15:41:55.021Z,21.60
2017-09-25T15:44:26.859Z,23.20
2017-09-25T15:46:57.261Z,21.27
2017-09-25T15:49:29.166Z,21.30
2017-09-25T15:52:02.420Z,25.93
2017-09-25T15:54:33.295Z,20.90
2017-09-25T15:57:05.571Z,21.30
2017-09-25T15:59:36.790Z,20.10
2017-09-25T16:02:07.789Z,24.10
2017-09-25T16:04:38.180Z,21.70
2017-09-25T16:07:09.860Z,20.20
2017-09-25T16:09:40.517Z,23.70
2017-09-25T16:12:10.812Z,20.83
2017-09-25T16:14:41.993Z,18.50
2017-09-25T16:17:12.527Z,22.40
2017-09-25T16:19:45.021Z,16.90
2017-09-25T16:22:15.313Z,23.30
2017-09-25T16:24:45.657Z,15.37
2017-09-25T16:27:16.655Z,21.47
2017-09-25T16:29:47.710Z,16.60
2017-09-25T16:32:18.384Z,20.27
2017-09-25T16:34:48.916Z,20.70
2017-09-25T16:37:20.694Z,22.23
2017-09-25T16:39:51.243Z,20.47
2017-09-25T16:42:22.097Z,17.10
2017-09-25T16:44:52.428Z,18.40
2017-09-25T16:49:53.555Z,18.80
2017-09-25T16:52:23.709Z,18.23
2017-09-25T16:54:53.926Z,21.10
2017-09-25T16:57:24.763Z,22.77
2017-09-25T16:59:56.431Z,21.90
2017-09-25T17:02:27.897Z,20.87
2017-09-25T17:04:59.482Z,23.47
2017-09-25T17:07:32.049Z,24.80
2017-09-25T17:10:03.819Z,23.47
2017-09-25T17:12:37.133Z,21.80
2017-09-25T17:15:07.807Z,24.37
2017-09-25T17:17:39.478Z,27.73
2017-09-25T17:20:11.150Z,19.17
2017-09-25T17:22:44.062Z,23.60
2017-09-25T17:25:17.573Z,23.40
2017-09-25T17:27:48.695Z,23.47
2017-09-25T17:30:22.664Z,16.60
2017-09-25T17:32:55.134Z,17.70
2017-09-25T17:35:25.855Z,18.67
2017-09-25T17:37:59.679Z,19.27
2017-09-25T17:40:32.209Z,18.27
2017-09-25T17:43:03.261Z,20.60
2017-09-25T17:45:38.337Z,17.70
2017-09-25T17:48:16.490Z,19.60
2017-09-25T17:50:47.209Z,20.40
2017-09-25T17:53:19.703Z,22.90
2017-09-25T17:55:54.024Z,18.80
2017-09-25T17:58:24.243Z,17.60
2017-09-25T18:00:55.081Z,20.10
2017-09-25T18:03:25.280Z,21.17
2017-09-25T18:05:57.202Z,19.00
2017-09-25T18:08:27.655Z,20.70
2017-09-25T18:10:59.132Z,18.67
2017-09-25T18:13:30.478Z,25.03
2017-09-25T18:16:02.969Z,30.70
2017-09-25T18:18:34.368Z,22.87
2017-09-25T18:21:05.334Z,23.97
2017-09-25T18:23:41.005Z,20.83
2017-09-25T18:26:15.144Z,28.57
2017-09-25T18:28:47.017Z,22.43
2017-09-25T18:31:18.688Z,22.83
2017-09-25T18:33:51.331Z,27.30
2017-09-25T18:36:22.260Z,21.77
2017-09-25T18:38:53.788Z,19.43
2017-09-25T18:41:25.320Z,18.27
2017-09-25T18:43:56.917Z,17.90
2017-09-25T18:46:29.816Z,18.40
2017-09-25T18:49:02.715Z,24.67
2017-09-25T18:51:33.567Z,16.17
2017-09-25T18:54:05.148Z,14.73
2017-09-25T18:56:37.557Z,20.80
2017-09-25T18:59:09.425Z,22.23
2017-09-25T19:01:41.344Z,24.47
2017-09-25T19:04:15.025Z,21.40
2017-09-25T19:06:48.125Z,29.57
2017-09-25T19:09:21.266Z,29.97
2017-09-25T19:11:53.580Z,23.70
2017-09-25T19:14:25.704Z,21.50
2017-09-25T19:16:56.187Z,29.50
2017-09-25T19:19:26.909Z,29.63
2017-09-25T19:21:57.218Z,20.23
2017-09-25T19:24:28.774Z,19.57
2017-09-25T19:27:00.661Z,30.67
2017-09-25T19:29:31.920Z,18.90
2017-09-25T19:32:02.782Z,24.73
2017-09-25T19:34:40.252Z,17.80
2017-09-25T19:37:14.262Z,16.90
2017-09-25T19:39:45.158Z,20.43
2017-09-25T19:42:16.874Z,18.07
2017-09-25T19:44:47.718Z,19.30
2017-09-25T19:47:20.290Z,16.43
2017-09-25T19:49:54.251Z,20.80
2017-09-25T19:52:31.350Z,17.27
2017-09-25T19:55:02.241Z,19.37
2017-09-25T19:57:35.973Z,18.80
2017-09-25T20:00:06.978Z,21.00
2017-09-25T20:02:39.035Z,17.80
2017-09-25T20:05:11.167Z,20.17
2017-09-25T20:07:41.569Z,22.10
2017-09-25T20:10:12.390Z,26.30
2017-09-25T20:12:43.901Z,21.17
2017-09-25T20:15:16.261Z,24.60
2017-09-25T20:17:47.059Z,24.60
2017-09-25T20:20:17.648Z,19.37
2017-09-25T20:22:47.904Z,20.20
2017-09-25T20:25:19.041Z,19.60
2017-09-25T20:27:49.955Z,18.27
2017-09-25T20:30:20.226Z,26.00
2017-09-25T20:32:51.222Z,14.27
2017-09-25T20:35:28.293Z,23.17
2017-09-25T20:37:59.911Z,28.23
2017-09-25T20:40:30.172Z,21.60
2017-09-25T20:43:00.763Z,20.40
2017-09-25T20:45:31.907Z,25.70
2017-09-25T20:48:02.136Z,36.93
2017-09-25T20:50:32.590Z,25.30
2017-09-25T20:53:04.063Z,24.03
2017-09-25T20:55:35.090Z,24.70
2017-09-25T20:58:05.523Z,19.97
2017-09-25T21:00:36.023Z,25.43
2017-09-25T21:03:06.598Z,25.47
2017-09-25T21:05:37.583Z,18.10
2017-09-25T21:08:07.683Z,22.50
2017-09-25T21:10:38.122Z,22.67
2017-09-25T21:13:08.297Z,25.70
2017-09-25T21:15:39.074Z,18.20
2017-09-25T21:18:09.823Z,19.80
2017-09-25T21:20:40.297Z,19.27
2017-09-25T21:23:11.297Z,26.07
2017-09-25T21:25:42.701Z,28.30
2017-09-25T21:28:13.725Z,27.90
2017-09-25T21:30:45.813Z,23.67
2017-09-25T21:33:16.543Z,31.33
2017-09-25T21:35:47.775Z,21.00
2017-09-25T21:38:17.925Z,24.20
2017-09-25T21:40:48.310Z,26.17
2017-09-25T21:43:19.185Z,27.00
2017-09-25T21:45:49.667Z,26.03
2017-09-25T21:48:20.285Z,18.60
2017-09-25T21:50:50.367Z,30.90
2017-09-25T21:53:20.992Z,22.33
2017-09-25T21:55:51.704Z,25.30
2017-09-25T21:58:22.882Z,29.17
2017-09-25T22:00:53.146Z,22.37
2017-09-25T22:03:23.537Z,29.87
2017-09-25T22:05:53.950Z,23.63
2017-09-25T22:08:24.522Z,18.03
2017-09-25T22:10:55.060Z,20.67
2017-09-25T22:13:25.635Z,20.30
2017-09-25T22:15:56.563Z,20.60
2017-09-25T22:18:27.777Z,19.43
2017-09-25T22:20:57.961Z,19.13
2017-09-25T22:23:28.325Z,22.60
2017-09-25T22:25:58.601Z,21.80
2017-09-25T22:28:29.412Z,27.57
2017-09-25T22:30:59.419Z,24.90
2017-09-25T22:33:29.758Z,18.97
2017-09-25T22:36:00.139Z,26.63
2017-09-25T22:38:32.088Z,23.47
2017-09-25T22:41:02.679Z,25.60
2017-09-25T22:43:33.222Z,26.80
2017-09-25T22:46:03.810Z,31.80
2017-09-25T22:48:34.652Z,32.97
2017-09-25T22:51:05.381Z,29.57
2017-09-25T22:53:35.649Z,34.53
2017-09-25T22:56:05.805Z,36.17
2017-09-25T22:58:38.305Z,33.50
2017-09-25T23:01:09.319Z,34.60
2017-09-25T23:03:39.965Z,24.50
2017-09-25T23:06:11.234Z,30.23
2017-09-25T23:08:42.138Z,25.80
2017-09-25T23:11:12.708Z,28.77
2017-09-25T23:13:43.639Z,29.20
2017-09-25T23:16:14.233Z,22.23
2017-09-25T23:18:45.273Z,27.70
2017-09-25T23:21:15.550Z,25.70
2017-09-25T23:23:46.075Z,23.33
2017-09-25T23:26:16.417Z,22.00
2017-09-25T23:28:47.835Z,22.80
2017-09-25T23:31:18.006Z,29.50
2017-09-25T23:33:48.498Z,26.43
2017-09-25T23:36:19.418Z,21.00
2017-09-25T23:38:50.110Z,21.33
2017-09-25T23:41:20.609Z,25.53
2017-09-25T23:43:51.393Z,22.87
2017-09-25T23:46:22.479Z,32.90
2017-09-25T23:48:53.061Z,22.90
2017-09-25T23:51:24.086Z,19.70
2017-09-25T23:53:54.206Z,27.73
2017-09-25T23:56:24.418Z,19.37
2017-09-25T23:58:55.004Z,25.73
